Esler Regional Airport Alexandria US
ICAO: KESF
IATA: ESF
Category: Medium
Scheduled Services: No

Elevation: 112 ft
TransAlt. 18000 ft.

Airport Communications:
POLK APP/DEP:132.05
CTAF/UNICOM:122.8
ARNG OPS:141.45
DE RIDDER RDO:122.55

KESF Zoom In..

Runways:

(A) RW 09 length 5999 ft width 150 ft
---- / hdg 90

(B) RW 14 length 5601 ft width 150 ft
---- / hdg 144

(C) RW 27 length 5999 ft width 150 ft
ILS 111.50 / hdg 270

(D) RW 32 length 5601 ft width 150 ft
---- / hdg 324

Location; KESF
Day. 22 / Time. 03.53 Zulu
* Altimeter: 29.95
* Temperature: 19° c. 66.2°f.
* Wind from: 150° Speed 05 kn.
Dewpoint: 17° c.
Visibility: 10 Statute Miles.
Clouds: Overcast 1700 ft.

KESF 220353Z AUTO 15005KT 10SM OVC017 19/17 A2995 RMK AO2 SLP142 T01940172


Wind From 150°
Speed 05 kn.

jpsM music video
CHECK IT OUT

jpsM - It Moves..

 
jpsmedia.com for Web Design  worldairports.se 2018   terms of use